Time,TemperatureF,DewpointF,PressureIn,WindDirection,WindDirectionDegrees,WindSpeedMPH,WindSpeedGustMPH,Humidity,HourlyPrecipIn,Conditions,Clouds,dailyrainin,SoftwareType,DateUTC
2013-02-14 00:08:00,32.4,31.9,29.60,SW,225,1.1,-999.0,98,-99.99,,,0.00,Acu-Link.com,2013-02-14 05:08:00,
2013-02-14 00:23:00,32.4,31.9,29.61,NNW,337,1.6,-999.0,98,-99.99,,,0.00,Acu-Link.com,2013-02-14 05:23:00,
2013-02-14 00:39:00,32.4,31.9,29.61,NE,45,2.2,-999.0,98,-99.99,,,0.00,Acu-Link.com,2013-02-14 05:39:00,
2013-02-14 00:54:00,32.4,31.9,29.61,NE,45,0.0,-999.0,98,-99.99,,,0.00,Acu-Link.com,2013-02-14 05:54:00,
2013-02-14 01:09:00,32.4,31.9,29.62,ENE,67,0.0,-999.0,98,-99.99,,,0.00,Acu-Link.com,2013-02-14 06:09:00,
2013-02-14 01:24:00,32.4,31.9,29.62,NNW,337,0.0,-999.0,98,-99.99,,,0.00,Acu-Link.com,2013-02-14 06:24:00,
2013-02-14 01:40:00,32.4,31.9,29.63,WSW,247,0.0,-999.0,98,-99.99,,,0.00,Acu-Link.com,2013-02-14 06:40:00,
2013-02-14 01:55:00,32.4,31.9,29.64,WSW,247,2.2,-999.0,98,-99.99,,,0.00,Acu-Link.com,2013-02-14 06:55:00,
2013-02-14 02:10:00,32.5,32.0,29.65,NNW,337,0.0,-999.0,98,-99.99,,,0.00,Acu-Link.com,2013-02-14 07:10:00,
2013-02-14 02:25:00,32.5,32.0,29.67,NW,315,0.0,-999.0,98,-99.99,,,0.00,Acu-Link.com,2013-02-14 07:25:00,
2013-02-14 02:40:00,32.7,32.2,29.67,ESE,112,0.0,-999.0,98,-99.99,,,0.00,Acu-Link.com,2013-02-14 07:40:00,
2013-02-14 02:55:00,32.7,32.2,29.67,NE,45,0.0,-999.0,98,-99.99,,,0.00,Acu-Link.com,2013-02-14 07:55:00,
2013-02-14 03:11:00,32.5,32.0,29.68,WNW,292,0.0,-999.0,98,-99.99,,,0.00,Acu-Link.com,2013-02-14 08:11:00,
2013-02-14 03:26:00,32.5,32.0,29.69,North,0,0.0,-999.0,98,-99.99,,,0.00,Acu-Link.com,2013-02-14 08:26:00,
2013-02-14 03:42:00,32.5,32.0,29.69,NW,315,0.0,-999.0,98,-99.99,,,0.01,Acu-Link.com,2013-02-14 08:42:00,
2013-02-14 03:57:00,32.5,32.0,29.70,WNW,292,0.0,-999.0,98,-99.99,,,0.01,Acu-Link.com,2013-02-14 08:57:00,
2013-02-14 04:15:00,32.5,32.0,29.70,West,270,1.6,-999.0,98,-99.99,,,0.01,Acu-Link.com,2013-02-14 09:15:00,
2013-02-14 04:30:00,32.5,32.0,29.70,NNW,337,0.0,-999.0,98,-99.99,,,0.01,Acu-Link.com,2013-02-14 09:30:00,
2013-02-14 04:45:00,32.4,31.9,29.71,South,180,1.1,-999.0,98,-99.99,,,0.01,Acu-Link.com,2013-02-14 09:45:00,
2013-02-14 05:01:00,32.2,31.7,29.71,SSE,157,0.0,-999.0,98,-99.99,,,0.01,Acu-Link.com,2013-02-14 10:01:00,
2013-02-14 05:16:00,32.4,31.9,29.73,SSE,157,0.0,-999.0,98,-99.99,,,0.01,Acu-Link.com,2013-02-14 10:16:00,
2013-02-14 05:31:00,32.4,31.9,29.74,SE,135,0.0,-999.0,98,-99.99,,,0.02,Acu-Link.com,2013-02-14 10:31:00,
2013-02-14 05:46:00,32.5,32.0,29.74,South,180,0.0,-999.0,98,-99.99,,,0.02,Acu-Link.com,2013-02-14 10:46:00,
2013-02-14 06:02:00,32.5,32.0,29.75,WSW,247,2.7,-999.0,98,-99.99,,,0.02,Acu-Link.com,2013-02-14 11:02:00,
2013-02-14 06:17:00,32.5,32.0,29.76,West,270,2.2,-999.0,98,-99.99,,,0.02,Acu-Link.com,2013-02-14 11:17:00,
2013-02-14 06:32:00,32.2,31.7,29.77,SW,225,0.0,-999.0,98,-99.99,,,0.02,Acu-Link.com,2013-02-14 11:32:00,
2013-02-14 06:47:00,31.8,31.3,29.78,SE,135,0.0,-999.0,98,-99.99,,,0.02,Acu-Link.com,2013-02-14 11:47:00,
2013-02-14 07:02:00,31.5,31.0,29.78,SSE,157,0.0,-999.0,98,-99.99,,,0.02,Acu-Link.com,2013-02-14 12:02:00,
2013-02-14 07:33:00,31.8,31.3,29.79,WNW,292,0.0,-999.0,98,-99.99,,,0.02,Acu-Link.com,2013-02-14 12:33:00,
2013-02-14 07:48:00,33.1,32.6,29.80,South,180,0.0,-999.0,98,-99.99,,,0.02,Acu-Link.com,2013-02-14 12:48:00,
2013-02-14 08:03:00,34.2,33.7,29.82,West,270,0.0,-999.0,98,-99.99,,,0.02,Acu-Link.com,2013-02-14 13:03:00,
2013-02-14 08:18:00,35.4,34.9,29.82,SSW,202,0.0,-999.0,98,-99.99,,,0.02,Acu-Link.com,2013-02-14 13:18:00,
2013-02-14 08:34:00,35.1,34.6,29.83,WSW,247,2.7,-999.0,98,-99.99,,,0.04,Acu-Link.com,2013-02-14 13:34:00,
2013-02-14 08:49:00,35.8,35.3,29.83,WNW,292,2.7,-999.0,98,-99.99,,,0.04,Acu-Link.com,2013-02-14 13:49:00,
2013-02-14 09:04:00,36.7,36.2,29.83,West,270,2.7,-999.0,98,-99.99,,,0.05,Acu-Link.com,2013-02-14 14:04:00,
2013-02-14 09:19:00,38.1,37.6,29.84,West,270,1.6,-999.0,98,-99.99,,,0.08,Acu-Link.com,2013-02-14 14:19:00,
2013-02-14 09:35:00,39.2,37.9,29.84,WNW,292,4.3,-999.0,95,-99.99,,,0.11,Acu-Link.com,2013-02-14 14:35:00,
2013-02-14 09:50:00,39.9,36.1,29.85,North,0,3.1,-999.0,86,-99.99,,,0.13,Acu-Link.com,2013-02-14 14:50:00,
2013-02-14 10:05:00,40.1,34.7,29.85,NNW,337,4.7,-999.0,81,-99.99,,,0.17,Acu-Link.com,2013-02-14 15:05:00,
2013-02-14 10:20:00,40.6,35.0,29.85,NNW,337,5.8,-999.0,80,-99.99,,,0.24,Acu-Link.com,2013-02-14 15:20:00,
2013-02-14 10:35:00,41.0,35.0,29.85,South,180,1.6,-999.0,79,-99.99,,,0.27,Acu-Link.com,2013-02-14 15:35:00,
2013-02-14 10:51:00,41.4,34.0,29.85,WNW,292,3.1,-999.0,75,-99.99,,,0.31,Acu-Link.com,2013-02-14 15:51:00,
2013-02-14 11:06:00,42.6,33.5,29.85,NNE,22,3.8,-999.0,70,-99.99,,,0.33,Acu-Link.com,2013-02-14 16:06:00,
2013-02-14 11:21:00,42.6,33.5,29.86,WNW,292,2.2,-999.0,70,-99.99,,,0.37,Acu-Link.com,2013-02-14 16:21:00,
2013-02-14 11:36:00,43.7,33.8,29.87,West,270,2.2,-999.0,68,-99.99,,,0.38,Acu-Link.com,2013-02-14 16:36:00,
2013-02-14 11:52:00,43.9,31.3,29.86,NNE,22,3.8,-999.0,61,-99.99,,,0.38,Acu-Link.com,2013-02-14 16:52:00,
2013-02-14 12:07:00,44.1,31.9,29.85,WSW,247,2.2,-999.0,62,-99.99,,,0.39,Acu-Link.com,2013-02-14 17:07:00,
2013-02-14 12:22:00,44.4,31.4,29.85,NW,315,1.6,-999.0,60,-99.99,,,0.40,Acu-Link.com,2013-02-14 17:22:00,
2013-02-14 12:37:00,44.8,31.8,29.84,NNE,22,3.8,-999.0,60,-99.99,,,0.40,Acu-Link.com,2013-02-14 17:37:00,
2013-02-14 12:52:00,45.9,32.4,29.84,North,0,2.7,-999.0,59,-99.99,,,0.40,Acu-Link.com,2013-02-14 17:52:00,
2013-02-14 13:07:00,46.2,32.7,29.83,West,270,3.1,-999.0,59,-99.99,,,0.40,Acu-Link.com,2013-02-14 18:07:00,
2013-02-14 13:23:00,47.8,33.4,29.84,WNW,292,2.7,-999.0,57,-99.99,,,0.40,Acu-Link.com,2013-02-14 18:23:00,
2013-02-14 13:38:00,46.9,32.1,29.84,SW,225,2.2,-999.0,56,-99.99,,,0.40,Acu-Link.com,2013-02-14 18:38:00,
2013-02-14 13:53:00,47.5,32.6,29.83,SSW,202,2.2,-999.0,56,-99.99,,,0.40,Acu-Link.com,2013-02-14 18:53:00,
2013-02-14 14:08:00,46.6,31.3,29.83,West,270,2.7,-999.0,55,-99.99,,,0.40,Acu-Link.com,2013-02-14 19:08:00,
2013-02-14 14:24:00,48.0,32.2,29.84,South,180,2.7,-999.0,54,-99.99,,,0.40,Acu-Link.com,2013-02-14 19:24:00,
2013-02-14 14:39:00,46.8,31.9,29.84,WSW,247,3.1,-999.0,56,-99.99,,,0.40,Acu-Link.com,2013-02-14 19:39:00,
2013-02-14 14:54:00,48.4,32.5,29.84,WNW,292,2.7,-999.0,54,-99.99,,,0.40,Acu-Link.com,2013-02-14 19:54:00,
2013-02-14 15:09:00,48.0,31.7,29.84,West,270,4.3,-999.0,53,-99.99,,,0.40,Acu-Link.com,2013-02-14 20:09:00,
2013-02-14 15:24:00,48.4,33.0,29.84,SSE,157,3.8,-999.0,55,-99.99,,,0.40,Acu-Link.com,2013-02-14 20:24:00,
2013-02-14 15:40:00,48.7,31.9,29.83,SSW,202,3.8,-999.0,52,-99.99,,,0.40,Acu-Link.com,2013-02-14 20:40:00,
2013-02-14 15:55:00,48.7,32.8,29.85,West,270,2.7,-999.0,54,-99.99,,,0.40,Acu-Link.com,2013-02-14 20:55:00,
2013-02-14 16:10:00,48.6,32.7,29.85,South,180,1.6,-999.0,54,-99.99,,,0.40,Acu-Link.com,2013-02-14 21:10:00,
2013-02-14 16:25:00,48.7,32.4,29.85,West,270,2.7,-999.0,53,-99.99,,,0.40,Acu-Link.com,2013-02-14 21:25:00,
2013-02-14 16:40:00,46.8,31.9,29.85,WSW,247,1.1,-999.0,56,-99.99,,,0.40,Acu-Link.com,2013-02-14 21:40:00,
2013-02-14 16:56:00,46.8,32.8,29.85,SSW,202,5.8,-999.0,58,-99.99,,,0.40,Acu-Link.com,2013-02-14 21:56:00,
2013-02-14 17:11:00,45.9,32.8,29.85,West,270,3.8,-999.0,60,-99.99,,,0.40,Acu-Link.com,2013-02-14 22:11:00,
2013-02-14 17:26:00,44.8,33.0,29.84,South,180,1.1,-999.0,63,-99.99,,,0.40,Acu-Link.com,2013-02-14 22:26:00,
2013-02-14 17:41:00,43.5,32.5,29.85,SW,225,2.2,-999.0,65,-99.99,,,0.40,Acu-Link.com,2013-02-14 22:41:00,
2013-02-14 17:56:00,42.6,32.8,29.86,South,180,1.6,-999.0,68,-99.99,,,0.40,Acu-Link.com,2013-02-14 22:56:00,
2013-02-14 18:12:00,41.5,32.8,29.87,South,180,1.6,-999.0,71,-99.99,,,0.40,Acu-Link.com,2013-02-14 23:12:00,
2013-02-14 18:27:00,40.8,33.2,29.88,South,180,1.1,-999.0,74,-99.99,,,0.40,Acu-Link.com,2013-02-14 23:27:00,
2013-02-14 18:42:00,40.3,33.3,29.88,South,180,1.1,-999.0,76,-99.99,,,0.40,Acu-Link.com,2013-02-14 23:42:00,
2013-02-14 18:57:00,39.4,33.7,29.87,WSW,247,1.6,-999.0,80,-99.99,,,0.40,Acu-Link.com,2013-02-14 23:57:00,
2013-02-14 19:12:00,38.3,34.2,29.88,South,180,1.6,-999.0,85,-99.99,,,0.40,Acu-Link.com,2013-02-15 00:12:00,
2013-02-14 19:28:00,37.6,33.8,29.88,SSW,202,0.0,-999.0,86,-99.99,,,0.40,Acu-Link.com,2013-02-15 00:28:00,
2013-02-14 19:43:00,36.7,32.9,29.89,NW,315,0.0,-999.0,86,-99.99,,,0.40,Acu-Link.com,2013-02-15 00:43:00,
2013-02-14 19:58:00,36.1,32.7,29.89,South,180,0.0,-999.0,87,-99.99,,,0.40,Acu-Link.com,2013-02-15 00:58:00,
2013-02-14 20:13:00,35.4,33.1,29.89,ENE,67,0.0,-999.0,91,-99.99,,,0.40,Acu-Link.com,2013-02-15 01:13:00,
2013-02-14 20:29:00,34.7,33.2,29.89,South,180,0.0,-999.0,94,-99.99,,,0.40,Acu-Link.com,2013-02-15 01:29:00,
2013-02-14 20:44:00,34.3,32.8,29.89,NNW,337,0.0,-999.0,94,-99.99,,,0.40,Acu-Link.com,2013-02-15 01:44:00,
2013-02-14 20:59:00,34.0,32.2,29.90,South,180,0.0,-999.0,93,-99.99,,,0.40,Acu-Link.com,2013-02-15 01:59:00,
2013-02-14 21:14:00,33.8,32.8,29.90,ESE,112,0.0,-999.0,96,-99.99,,,0.40,Acu-Link.com,2013-02-15 02:14:00,
2013-02-14 21:29:00,33.3,32.8,29.90,South,180,0.0,-999.0,98,-99.99,,,0.40,Acu-Link.com,2013-02-15 02:29:00,
2013-02-14 21:46:00,32.7,32.2,29.91,NE,45,0.0,-999.0,98,-99.99,,,0.40,Acu-Link.com,2013-02-15 02:46:00,
2013-02-14 22:01:00,32.2,31.7,29.91,ENE,67,0.0,-999.0,98,-99.99,,,0.40,Acu-Link.com,2013-02-15 03:01:00,
2013-02-14 22:16:00,31.8,31.3,29.91,SSE,157,1.1,-999.0,98,-99.99,,,0.40,Acu-Link.com,2013-02-15 03:16:00,
2013-02-14 22:31:00,32.0,31.5,29.91,ESE,112,1.1,-999.0,98,-99.99,,,0.40,Acu-Link.com,2013-02-15 03:31:00,
2013-02-14 22:46:00,32.0,31.5,29.90,ESE,112,0.0,-999.0,98,-99.99,,,0.40,Acu-Link.com,2013-02-15 03:46:00,
2013-02-14 23:01:00,32.0,31.5,29.89,South,180,0.0,-999.0,98,-99.99,,,0.40,Acu-Link.com,2013-02-15 04:01:00,
2013-02-14 23:17:00,31.5,31.0,29.90,South,180,0.0,-999.0,98,-99.99,,,0.40,Acu-Link.com,2013-02-15 04:17:00,
2013-02-14 23:32:00,30.7,30.2,29.90,ESE,112,1.6,-999.0,98,-99.99,,,0.40,Acu-Link.com,2013-02-15 04:32:00,
2013-02-14 23:47:00,31.5,31.0,29.91,SSE,157,2.2,-999.0,98,-99.99,,,0.40,Acu-Link.com,2013-02-15 04:47:00,